Portada
METAR-TAF:

METAR-TAF

Aeroports :

Kuujjuarapik, Quebec, Canadà

latitud: 55-17N, longitud: 077-46W, altitud: 21 m

Observació

L'informe es va fer fa 58 minuts, a les 19:00 UTC
Vent 8 kt del Nord/Nord-Oest
Temperatura 11°C
Humitat 82%
Pressió 1015 hPa
Visibilitat: 14.5 km
Cel clar

METAR: CYGW 151900Z AUTO 34008KT 9SM CLR 11/08 A2997 RMK SLP149

Hora: 15:58 (19:58 UTC)

Pronòstic

L'informe es va fer fa 2 hores i 19 minuts, a les 17:39 UTC
Pronòstic vàlid del 15 a les 18 UTC al 16 a les 06 UTC
Vent 8 kt del Nord/Nord-Oest
Visibilitat: 10 km
Cel clar
A partir de les 16 a les 0300 UTC
Vent 3 kt amb direcció variable
Visibilitat: 10 km
Cel clar
Temporalment
l' 16 a les 03 UTC al 16 a les 06 UTC
Visibilitat: 8.0 km
boirina

TAF: CYGW 151739Z 1518/1606 34008KT P6SM SKC FM160300 VRB03KT P6SM SKC TEMPO 1603/1606 5SM BR RMK FCST BASED ON AUTO OBS. NXT FCST BY 160000Z

Observacions i pronòstics meteorològics de més de 4000 aeroports (METAR i TAF).

Les estacions disponibles són els punts grocs i vermells al mapa.

Posi el ratolí al punt desitjat per veure el nom de l'estació.

Feu clic per veure les observacions i els pronòstics meteorològics.

Per canviar el mapa: feu clic els botons verds amb una creu de color negre per apropar; al botó verd amb un guió per allunyar la imatge; o en les fletxes verdes per a mapes adjacents.


METAR-TAF: